Página principal
METAR-TAF:

METAR-TAF

Aeroportos :

Longyearbyen, Noruega

latitude: 78-15N, longitude: 015-28E, altura: 2 m

Observação actual do tempo

O boletim foi feito há 45 minutos, às 10:20 UTC
Vento 11 kt de sudeste
Temperatura -1°C
Humidade 59%
Pressão 1019 hPa
Visibilidade 10 km ou mais
Poucas nuvensa uma altura de 3500 ft
Nuvens dispersasa uma altura de 7000 ft

METAR: ENSB 181020Z 13011KT 9999 FEW035 SCT070 M01/M08 Q1019 NOSIG RMK WIND 1400FT 12010KT

Hora: 13:05 (11:05 UTC)

Previsão

Previsão válida de 18 às 06 UTC a 19 às 06 UTC
Vento 12 kt de es-sudeste
Visibilidade 10 km ou mais
Poucas nuvensa uma altura de 2000 ft
Nuvens fragmentadasa uma altura de 4000 ft

TAF: ENSB 1806/1906 12012KT 9999 FEW020 BKN040

Observações e previsões do tempo de mais de 4000 aeroportos (mensagens METAR e TAF).

As estações disponíveis são os pontos amarelos e vermelhos sobre o mapa.

Mova o rato sobre o mapa para ver o nome da estação.

Depois clique no ponto para visualizar as observações e previsões meteorológicas.

Para alterar o mapa : clique nos botões verdes com uma cruz preta para aumentar o zoom; no botão verde com uma pitada de zoom; ou nas setas verdes para mapas adjacentes.


METAR-TAF: